Time;durP1;ratioP1;P1;durP2;ratioP2;P2;SDS_P1;SDS_P2;PMS_P1;PMS_P2;Temp;Humidity;BMP_temperature;BMP_pressure;BME280_temperature;BME280_humidity;BME280_pressure;Samples;Min_cycle;Max_cycle;Signal;HPM_P1;HPM_P2
2021/05/26 00:04:31;;;;;;;2.90;0.30;;;8.90;99.90;;;;;;10075488;29;20116;-60
2021/05/26 00:09:33;;;;;;;3.72;0.30;;;8.90;99.90;;;;;;10075062;29;20052;-60
2021/05/26 00:14:35;;;;;;;2.97;0.38;;;8.80;99.90;;;;;;10078268;29;20044;-60
2021/05/26 00:19:38;;;;;;;1.58;0.30;;;8.90;99.90;;;;;;10071958;29;20120;-61
2021/05/26 00:24:40;;;;;;;4.85;0.63;;;8.80;99.90;;;;;;10074797;29;20053;-59
2021/05/26 00:29:42;;;;;;;6.13;0.30;;;8.90;99.90;;;;;;10067703;29;20073;-60
2021/05/26 00:34:44;;;;;;;2.28;0.55;;;8.80;99.90;;;;;;10074951;29;20377;-62
2021/05/26 00:39:46;;;;;;;1.48;0.32;;;8.90;99.90;;;;;;10072907;29;20409;-62
2021/05/26 00:44:53;;;;;;;2.63;0.40;;;9.00;99.90;;;;;;10071119;29;20065;-60
2021/05/26 00:49:54;;;;;;;3.05;0.40;;;9.00;99.90;;;;;;10071317;29;20532;-60
2021/05/26 00:54:56;;;;;;;6.45;0.57;;;9.00;99.90;;;;;;10073464;29;20057;-60
2021/05/26 00:59:58;;;;;;;2.03;0.40;;;9.00;99.90;;;;;;10072774;29;20121;-59
2021/05/26 01:05:00;;;;;;;4.00;0.98;;;9.00;99.90;;;;;;10072488;29;20049;-59
2021/05/26 01:10:03;;;;;;;5.68;0.70;;;8.90;99.90;;;;;;10057491;29;20045;-61
2021/05/26 01:15:08;;;;;;;3.10;0.65;;;8.90;99.90;;;;;;10073248;29;20040;-59
2021/05/26 01:20:17;;;;;;;2.38;1.13;;;8.90;99.90;;;;;;10069666;29;20049;-59
2021/05/26 01:25:20;;;;;;;2.33;0.75;;;8.90;99.90;;;;;;10073550;29;20067;-58
2021/05/26 01:30:22;;;;;;;2.65;0.70;;;8.80;99.90;;;;;;10054710;29;20080;-60
2021/05/26 01:35:24;;;;;;;4.55;0.70;;;8.70;99.90;;;;;;10071965;29;20063;-59
2021/05/26 01:40:25;;;;;;;3.58;0.63;;;8.70;99.90;;;;;;10072370;29;20060;-59
2021/05/26 01:45:27;;;;;;;5.78;0.70;;;8.70;99.90;;;;;;10072499;29;20089;-59
2021/05/26 01:50:29;;;;;;;4.70;0.80;;;8.80;99.90;;;;;;10071203;29;20053;-58
2021/05/26 01:55:32;;;;;;;18.38;4.13;;;8.80;99.90;;;;;;10071427;29;20041;-58
2021/05/26 02:00:34;;;;;;;89.80;19.35;;;8.80;99.90;;;;;;10058959;29;20061;-58
2021/05/26 02:05:36;;;;;;;22.67;7.68;;;8.80;99.90;;;;;;9880605;29;20068;-58
2021/05/26 02:15:58;;;;;;;3.35;1.60;;;8.80;99.90;;;;;;9876307;29;20053;-58
2021/05/26 02:21:00;;;;;;;5.13;1.90;;;8.80;99.90;;;;;;9878509;29;20139;-56
2021/05/26 02:26:02;;;;;;;3.70;1.92;;;8.80;99.90;;;;;;9872268;29;20510;-57
2021/05/26 02:31:04;;;;;;;9.30;3.13;;;8.80;99.90;;;;;;9885080;29;20625;-57
2021/05/26 02:36:07;;;;;;;2.78;1.65;;;8.90;99.90;;;;;;9911682;29;20473;-58
2021/05/26 02:41:10;;;;;;;12.50;3.15;;;8.80;99.90;;;;;;9909190;29;20698;-60
2021/05/26 02:46:12;;;;;;;7.65;2.30;;;8.90;99.90;;;;;;9910963;29;20057;-57
2021/05/26 02:51:13;;;;;;;3.78;2.25;;;9.00;99.90;;;;;;9910419;29;20544;-59
2021/05/26 02:56:15;;;;;;;6.63;1.63;;;9.00;99.90;;;;;;9907982;29;20100;-58
2021/05/26 03:01:17;;;;;;;5.63;2.95;;;9.00;99.90;;;;;;9894933;29;20116;-58
2021/05/26 03:06:19;;;;;;;4.40;2.28;;;9.00;99.90;;;;;;9843207;29;20068;-58
2021/05/26 03:11:21;;;;;;;3.58;2.50;;;9.10;99.90;;;;;;9844458;29;20056;-58
2021/05/26 03:16:23;;;;;;;6.93;2.45;;;9.00;99.90;;;;;;9844631;29;20060;-58
2021/05/26 03:21:25;;;;;;;2.30;2.05;;;9.00;99.90;;;;;;9851964;29;20611;-58
2021/05/26 03:26:26;;;;;;;4.28;2.10;;;8.90;99.90;;;;;;9852645;29;20492;-62
2021/05/26 03:31:31;;;;;;;6.00;3.40;;;9.00;99.90;;;;;;9792791;29;20052;-62
2021/05/26 03:36:32;;;;;;;5.15;3.38;;;9.00;99.90;;;;;;9716991;29;20524;-62
2021/05/26 03:41:34;;;;;;;3.22;3.03;;;9.00;99.90;;;;;;9726858;29;20104;-62
2021/05/26 03:46:37;;;;;;;4.45;3.53;;;9.00;99.90;;;;;;9716947;29;20274;-62
2021/05/26 03:51:39;;;;;;;3.35;0.70;;;9.00;99.90;;;;;;9942098;29;20060;-63
2021/05/26 03:56:42;;;;;;;4.15;0.80;;;9.00;99.90;;;;;;10075514;29;20060;-62
2021/05/26 04:01:44;;;;;;;5.82;0.50;;;9.00;99.90;;;;;;10074804;29;20049;-63
2021/05/26 04:06:46;;;;;;;10.02;1.23;;;9.10;99.90;;;;;;10073857;29;20061;-63
2021/05/26 04:11:48;;;;;;;3.42;0.80;;;9.10;99.90;;;;;;10075224;29;20140;-63
2021/05/26 04:16:50;;;;;;;2.78;0.50;;;9.10;99.90;;;;;;10074769;29;20109;-63
2021/05/26 04:21:52;;;;;;;4.32;0.93;;;9.20;99.90;;;;;;10074655;29;20053;-63
2021/05/26 04:26:53;;;;;;;3.13;0.80;;;9.20;99.90;;;;;;10070556;29;20084;-63
2021/05/26 04:31:58;;;;;;;4.75;0.85;;;9.20;99.90;;;;;;10075203;29;20079;-63
2021/05/26 04:37:00;;;;;;;4.50;0.80;;;9.20;99.90;;;;;;10073551;29;20489;-63
2021/05/26 04:42:02;;;;;;;4.22;1.00;;;9.00;99.90;;;;;;10073640;29;20057;-63
2021/05/26 04:47:04;;;;;;;5.38;0.80;;;8.90;99.90;;;;;;10074227;29;20948;-63
2021/05/26 04:52:05;;;;;;;4.28;1.05;;;9.10;99.90;;;;;;10072852;29;20122;-63
2021/05/26 04:57:07;;;;;;;3.67;0.80;;;9.10;99.90;;;;;;10074016;29;20056;-63
2021/05/26 05:02:09;;;;;;;8.45;0.73;;;9.20;99.90;;;;;;10071277;29;20433;-63
2021/05/26 05:07:10;;;;;;;9.13;2.95;;;9.30;99.90;;;;;;10072915;29;20045;-63
2021/05/26 05:12:12;;;;;;;8.02;0.90;;;9.30;99.90;;;;;;10069409;29;20109;-64
2021/05/26 05:17:14;;;;;;;5.15;1.02;;;9.30;99.90;;;;;;10072927;29;20149;-63
2021/05/26 05:22:16;;;;;;;4.80;1.67;;;9.30;99.90;;;;;;10071088;29;20469;-63
2021/05/26 05:27:18;;;;;;;7.07;2.15;;;9.30;99.90;;;;;;10071254;29;20057;-63
2021/05/26 05:32:20;;;;;;;5.57;1.38;;;9.30;99.90;;;;;;10072004;29;20052;-63
2021/05/26 05:37:21;;;;;;;1.98;1.25;;;9.30;99.90;;;;;;10070805;29;20143;-63
2021/05/26 05:42:23;;;;;;;6.03;1.60;;;9.20;99.90;;;;;;10070426;29;20064;-63
2021/05/26 05:47:25;;;;;;;4.80;1.48;;;9.30;99.90;;;;;;10071740;29;20057;-63
2021/05/26 05:52:26;;;;;;;8.23;1.90;;;9.40;99.90;;;;;;10072686;29;20104;-63
2021/05/26 05:57:28;;;;;;;5.18;1.25;;;9.50;99.90;;;;;;10071891;29;20053;-63
2021/05/26 06:02:30;;;;;;;6.43;1.15;;;9.30;99.90;;;;;;10069471;29;20053;-63
2021/05/26 06:07:31;;;;;;;8.40;1.60;;;9.20;99.90;;;;;;10071103;29;20053;-63
2021/05/26 06:12:33;;;;;;;7.28;1.52;;;9.40;99.90;;;;;;10071051;29;20067;-64
2021/05/26 06:17:36;;;;;;;7.00;1.88;;;9.30;99.90;;;;;;10072255;29;20132;-63
2021/05/26 06:22:37;;;;;;;5.72;1.42;;;9.30;99.90;;;;;;10069890;29;20716;-63
2021/05/26 06:27:40;;;;;;;5.75;2.00;;;9.20;99.90;;;;;;10066303;29;20052;-63
2021/05/26 06:32:42;;;;;;;6.72;1.92;;;9.40;99.90;;;;;;10051878;29;20584;-63
2021/05/26 06:37:44;;;;;;;3.45;2.40;;;9.40;99.90;;;;;;10068560;29;20055;-63
2021/05/26 06:42:46;;;;;;;7.85;2.15;;;9.40;99.90;;;;;;10070429;29;20553;-63
2021/05/26 06:47:47;;;;;;;7.00;1.40;;;9.20;99.90;;;;;;10075699;29;20076;-64
2021/05/26 06:52:49;;;;;;;5.45;1.52;;;9.20;99.90;;;;;;10079236;29;20085;-63
2021/05/26 06:57:52;;;;;;;6.93;2.03;;;9.30;99.90;;;;;;10078303;29;20045;-63
2021/05/26 07:02:54;;;;;;;6.65;1.90;;;9.30;99.90;;;;;;10076058;29;20496;-63
2021/05/26 07:07:56;;;;;;;8.90;1.70;;;9.20;99.90;;;;;;10076922;29;20049;-62
2021/05/26 07:12:58;;;;;;;6.53;2.03;;;9.30;99.90;;;;;;10075328;29;20053;-62
2021/05/26 07:18:08;;;;;;;6.28;2.28;;;9.30;99.90;;;;;;10079360;29;20054;-63
2021/05/26 07:23:10;;;;;;;4.35;1.70;;;9.30;99.90;;;;;;10080094;29;20061;-63
2021/05/26 07:28:12;;;;;;;11.48;1.95;;;9.30;99.90;;;;;;10076397;29;20136;-63
2021/05/26 07:33:14;;;;;;;7.68;2.13;;;9.30;99.90;;;;;;10080206;29;20056;-62
2021/05/26 07:38:16;;;;;;;7.10;2.47;;;9.40;99.90;;;;;;10080048;29;20105;-63
2021/05/26 07:43:19;;;;;;;7.28;2.78;;;9.40;99.90;;;;;;10077808;29;20065;-63
2021/05/26 07:48:21;;;;;;;6.72;3.20;;;9.60;99.90;;;;;;10080755;29;20116;-63
2021/05/26 07:53:23;;;;;;;5.78;2.85;;;9.60;99.90;;;;;;10075498;29;20057;-63
2021/05/26 07:58:25;;;;;;;6.82;3.25;;;9.70;99.90;;;;;;10076664;29;20515;-63
2021/05/26 08:03:27;;;;;;;9.52;3.28;;;9.70;99.90;;;;;;10051865;29;20096;-63
2021/05/26 08:08:30;;;;;;;9.00;2.75;;;9.80;99.90;;;;;;10073297;29;20124;-63
2021/05/26 08:13:32;;;;;;;7.18;2.47;;;10.00;99.90;;;;;;10074445;29;20061;-63
2021/05/26 08:18:34;;;;;;;5.75;2.00;;;9.90;99.90;;;;;;10074083;29;20113;-63
2021/05/26 08:23:36;;;;;;;8.63;1.88;;;10.00;99.90;;;;;;10075420;29;20045;-62
2021/05/26 08:28:38;;;;;;;6.28;1.42;;;10.10;99.90;;;;;;10068513;29;20049;-62
2021/05/26 08:33:41;;;;;;;3.40;1.08;;;10.60;99.90;;;;;;10077697;29;20572;-62
2021/05/26 08:38:43;;;;;;;3.72;1.35;;;11.00;99.90;;;;;;10071929;29;20462;-62
2021/05/26 08:43:44;;;;;;;2.78;1.10;;;11.30;99.90;;;;;;10061056;29;20053;-62
2021/05/26 08:48:47;;;;;;;6.10;1.77;;;11.20;99.90;;;;;;10072068;29;20430;-61
2021/05/26 08:53:49;;;;;;;3.10;1.10;;;10.90;99.90;;;;;;10076015;29;20049;-61
2021/05/26 08:58:51;;;;;;;3.35;0.73;;;11.10;99.90;;;;;;10075811;29;20053;-62
2021/05/26 09:03:54;;;;;;;7.45;1.13;;;11.30;99.90;;;;;;10073614;29;20056;-61
2021/05/26 09:08:55;;;;;;;4.43;0.98;;;11.30;99.90;;;;;;10070367;29;20110;-60
2021/05/26 09:13:57;;;;;;;3.20;0.93;;;11.80;99.90;;;;;;10075498;29;20105;-60
2021/05/26 09:19:03;;;;;;;2.03;1.00;;;11.80;99.90;;;;;;10072256;29;20493;-60
2021/05/26 09:24:26;;;;;;;0.63;0.43;;;12.00;99.90;;;;;;10072912;29;20049;-61
2021/05/26 09:29:33;;;;;;;4.60;0.50;;;11.90;99.90;;;;;;10072044;29;20049;-60
2021/05/26 09:34:38;;;;;;;;;;;12.10;99.90;;;;;;10070201;29;20064;-60
2021/05/26 09:39:47;;;;;;;3.15;0.40;;;12.40;99.90;;;;;;10062389;29;19976;-60
2021/05/26 09:45:09;;;;;;;5.35;1.08;;;12.70;99.90;;;;;;10072367;29;20108;-60
2021/05/26 09:50:23;;;;;;;0.70;0.47;;;12.60;99.90;;;;;;10025803;29;20045;-60
2021/05/26 09:55:35;;;;;;;1.77;0.82;;;12.70;99.90;;;;;;10069227;29;20064;-60
2021/05/26 10:00:43;;;;;;;1.40;0.30;;;12.60;99.90;;;;;;10070185;29;20044;-60
2021/05/26 10:05:44;;;;;;;;;;;12.50;99.90;;;;;;10071183;29;20053;-59
2021/05/26 10:10:48;;;;;;;3.50;0.50;;;12.50;99.90;;;;;;10069557;29;19923;-59
2021/05/26 10:15:50;;;;;;;1.52;0.40;;;12.40;99.90;;;;;;10070047;29;20128;-60
2021/05/26 10:20:52;;;;;;;4.32;0.50;;;12.40;99.90;;;;;;10069182;29;20481;-59
2021/05/26 10:25:54;;;;;;;2.00;0.30;;;12.40;99.90;;;;;;10070111;29;20053;-62
2021/05/26 10:30:57;;;;;;;4.05;0.30;;;12.30;99.90;;;;;;10069751;29;20053;-59
2021/05/26 10:36:00;;;;;;;1.35;0.30;;;12.40;99.90;;;;;;10071060;29;20053;-59
2021/05/26 10:41:02;;;;;;;2.28;0.30;;;12.10;99.90;;;;;;10054515;29;20076;-61
2021/05/26 10:46:05;;;;;;;1.65;0.40;;;12.00;99.90;;;;;;10070181;29;20049;-60
2021/05/26 10:51:08;;;;;;;3.65;0.30;;;11.70;99.90;;;;;;10069753;29;20462;-60
2021/05/26 10:56:37;;;;;;;0.65;0.40;;;11.70;99.90;;;;;;10070983;29;20113;-59
2021/05/26 11:02:08;;;;;;;2.65;0.50;;;11.70;99.90;;;;;;10025240;29;20053;-60
2021/05/26 11:07:20;;;;;;;1.85;0.90;;;11.40;99.90;;;;;;10019784;29;20048;-61
2021/05/26 11:12:22;;;;;;;1.40;0.40;;;11.50;99.90;;;;;;10074442;29;20457;-61
2021/05/26 11:17:28;;;;;;;1.38;0.68;;;11.20;99.90;;;;;;10071293;29;20057;-62
2021/05/26 11:22:30;;;;;;;2.35;0.70;;;11.10;99.90;;;;;;10069198;29;20069;-62
2021/05/26 11:27:32;;;;;;;1.05;0.50;;;11.10;99.90;;;;;;10068850;29;20049;-62
2021/05/26 11:32:34;;;;;;;4.25;1.50;;;11.20;99.90;;;;;;10073684;29;20057;-63
2021/05/26 11:37:41;;;;;;;4.50;0.80;;;11.10;99.90;;;;;;10076097;29;20068;-63
2021/05/26 11:42:43;;;;;;;;;;;11.10;99.90;;;;;;10072373;29;20132;-62
2021/05/26 11:47:51;;;;;;;3.88;1.23;;;11.30;99.90;;;;;;10076707;29;20314;-63
2021/05/26 11:52:59;;;;;;;7.07;2.13;;;11.20;99.90;;;;;;10077975;29;20064;-63
2021/05/26 11:58:01;;;;;;;2.00;1.10;;;11.20;99.90;;;;;;10074588;29;20509;-63
2021/05/26 12:03:08;;;;;;;4.82;1.13;;;11.50;99.90;;;;;;10075874;29;20075;-63
2021/05/26 12:08:40;;;;;;;2.90;1.10;;;11.70;99.90;;;;;;10073820;29;20045;-63
2021/05/26 12:13:47;;;;;;;2.33;2.08;;;11.50;99.90;;;;;;10025620;29;20053;-63
2021/05/26 12:18:54;;;;;;;3.58;2.40;;;11.70;99.90;;;;;;10075133;29;20080;-63
2021/05/26 12:24:04;;;;;;;10.82;3.25;;;11.70;99.90;;;;;;10053433;29;20041;-63
2021/05/26 12:29:11;;;;;;;6.90;1.30;;;11.70;99.90;;;;;;10080443;29;20108;-63
2021/05/26 12:34:17;;;;;;;3.65;1.00;;;11.40;99.90;;;;;;10076729;29;20464;-62
2021/05/26 12:39:21;;;;;;;1.50;1.00;;;11.40;99.90;;;;;;10078053;29;20057;-62
2021/05/26 12:44:25;;;;;;;0.80;0.65;;;11.50;99.90;;;;;;10081084;29;20109;-63
2021/05/26 12:54:48;;;;;;;0.68;0.32;;;11.60;99.90;;;;;;10072496;29;20060;-63
2021/05/26 13:00:03;;;;;;;1.35;0.25;;;11.50;99.90;;;;;;10071645;29;20434;-62
2021/05/26 13:05:07;;;;;;;0.70;0.28;;;11.70;99.90;;;;;;10024966;29;20064;-63
2021/05/26 13:10:24;;;;;;;1.58;1.25;;;11.70;99.90;;;;;;9856285;29;20891;-64
2021/05/26 13:15:33;;;;;;;0.98;0.30;;;11.70;99.90;;;;;;9912509;29;20052;-64
2021/05/26 13:20:37;;;;;;;0.68;0.20;;;11.70;99.90;;;;;;10072880;29;20497;-64
2021/05/26 13:25:40;;;;;;;1.75;0.63;;;11.50;99.90;;;;;;10071626;29;20045;-65
2021/05/26 13:30:43;;;;;;;3.38;0.45;;;11.40;99.90;;;;;;10072877;29;20112;-65
2021/05/26 13:35:46;;;;;;;5.07;0.70;;;11.40;99.90;;;;;;10071945;29;20049;-64
2021/05/26 13:40:48;;;;;;;0.38;0.20;;;11.20;99.90;;;;;;10069975;29;20499;-65
2021/05/26 13:45:50;;;;;;;2.97;0.20;;;10.90;99.90;;;;;;10068733;29;20053;-64
2021/05/26 13:50:51;;;;;;;0.93;0.15;;;11.00;99.90;;;;;;10068885;29;20045;-65
2021/05/26 13:55:53;;;;;;;0.00;0.00;;;11.00;99.90;;;;;;10071545;29;20056;-64
2021/05/26 14:00:55;;;;;;;0.00;0.00;;;11.00;99.90;;;;;;10066326;29;20056;-64
2021/05/26 14:05:57;;;;;;;0.00;0.00;;;10.70;99.90;;;;;;10070357;29;20049;-64
2021/05/26 14:10:59;;;;;;;0.00;0.00;;;10.30;99.90;;;;;;10071755;29;20060;-64
2021/05/26 14:16:05;;;;;;;0.00;0.00;;;10.40;99.90;;;;;;10072203;29;20511;-63
2021/05/26 14:21:07;;;;;;;0.00;0.00;;;10.80;99.90;;;;;;10070795;29;20101;-63
2021/05/26 14:26:09;;;;;;;0.05;0.05;;;11.00;99.90;;;;;;10070703;29;20104;-63
2021/05/26 14:31:11;;;;;;;0.00;0.00;;;11.00;99.90;;;;;;10069081;29;20493;-63
2021/05/26 14:36:15;;;;;;;0.00;0.00;;;11.10;99.90;;;;;;10068212;29;20765;-63
2021/05/26 14:41:17;;;;;;;0.00;0.00;;;11.10;99.90;;;;;;10069327;29;20061;-62
2021/05/26 14:46:21;;;;;;;0.00;0.00;;;11.30;99.90;;;;;;10071388;29;20112;-62
2021/05/26 14:51:23;;;;;;;0.00;0.00;;;11.20;99.90;;;;;;10073798;29;20080;-62
2021/05/26 14:56:26;;;;;;;0.00;0.00;;;10.90;99.90;;;;;;10069521;29;20053;-61
2021/05/26 15:01:29;;;;;;;0.00;0.00;;;11.10;99.90;;;;;;10064933;29;20057;-62
2021/05/26 15:06:31;;;;;;;0.00;0.00;;;12.00;99.90;;;;;;10076801;29;20060;-62
2021/05/26 15:11:33;;;;;;;0.00;0.00;;;12.20;99.90;;;;;;10080122;29;20072;-61
2021/05/26 15:16:35;;;;;;;0.00;0.00;;;12.20;99.90;;;;;;10076789;29;20520;-59
2021/05/26 15:21:37;;;;;;;0.00;0.00;;;12.60;99.90;;;;;;10078955;29;20049;-62
2021/05/26 15:26:39;;;;;;;0.00;0.00;;;12.90;99.90;;;;;;10077433;29;20049;-62
2021/05/26 15:31:40;;;;;;;0.00;0.00;;;13.30;99.90;;;;;;10077294;29;20653;-61
2021/05/26 15:36:42;;;;;;;0.00;0.00;;;14.10;99.90;;;;;;10076197;29;20108;-60
2021/05/26 15:41:44;;;;;;;0.00;0.00;;;13.40;99.90;;;;;;10077317;29;20392;-61
2021/05/26 15:46:51;;;;;;;0.00;0.00;;;13.50;99.90;;;;;;10077724;29;20048;-62
2021/05/26 15:51:53;;;;;;;0.00;0.00;;;13.80;99.90;;;;;;10069626;29;20072;-62
2021/05/26 15:56:54;;;;;;;0.00;0.00;;;14.20;99.90;;;;;;10071832;29;20097;-61
2021/05/26 16:01:56;;;;;;;0.00;0.00;;;13.70;99.90;;;;;;10075838;29;20045;-62
2021/05/26 16:06:58;;;;;;;0.00;0.00;;;14.30;99.90;;;;;;10071640;29;20045;-63
2021/05/26 16:12:00;;;;;;;0.00;0.00;;;14.70;99.90;;;;;;10059431;29;20049;-63
2021/05/26 16:17:02;;;;;;;0.00;0.00;;;15.10;99.90;;;;;;10074051;29;20067;-61
2021/05/26 16:22:04;;;;;;;0.00;0.00;;;14.80;99.90;;;;;;10071736;29;20049;-60
2021/05/26 16:27:06;;;;;;;0.00;0.00;;;14.40;99.90;;;;;;10074578;29;20069;-61
2021/05/26 16:32:09;;;;;;;0.00;0.00;;;14.80;99.20;;;;;;10073839;29;20049;-61
2021/05/26 16:37:12;;;;;;;0.10;0.10;;;14.10;99.90;;;;;;10047184;29;20155;-61
2021/05/26 16:42:17;;;;;;;0.08;0.08;;;13.80;99.90;;;;;;10074449;29;20063;-60
2021/05/26 16:47:20;;;;;;;2.25;0.10;;;13.60;99.90;;;;;;10074014;29;20059;-62
2021/05/26 16:52:22;;;;;;;0.55;0.10;;;13.60;99.90;;;;;;10068929;29;20053;-61
2021/05/26 16:57:27;;;;;;;1.63;0.10;;;13.50;99.90;;;;;;10072044;29;20453;-62
2021/05/26 17:02:29;;;;;;;0.40;0.15;;;13.50;99.90;;;;;;10069478;29;20052;-61
2021/05/26 17:07:34;;;;;;;0.52;0.10;;;13.40;99.90;;;;;;10073960;29;20109;-62
2021/05/26 17:12:37;;;;;;;0.10;0.10;;;13.40;99.90;;;;;;10072776;29;20472;-62
2021/05/26 17:17:40;;;;;;;1.70;0.28;;;13.30;99.90;;;;;;10071795;29;20500;-61
2021/05/26 17:22:43;;;;;;;0.73;0.30;;;12.40;99.90;;;;;;10074287;29;20086;-64
2021/05/26 17:27:44;;;;;;;0.95;0.43;;;11.40;99.90;;;;;;10073799;29;20113;-63
2021/05/26 17:32:46;;;;;;;0.50;0.30;;;12.10;99.90;;;;;;10058298;29;20060;-62
2021/05/26 17:37:53;;;;;;;0.60;0.30;;;12.40;99.90;;;;;;10043450;29;20067;-61
2021/05/26 17:42:55;;;;;;;1.60;0.30;;;13.00;99.90;;;;;;10054787;29;20049;-60
2021/05/26 17:47:57;;;;;;;4.13;0.30;;;12.50;99.90;;;;;;10070635;29;20049;-61
2021/05/26 17:53:00;;;;;;;0.93;0.30;;;13.00;99.90;;;;;;10070054;29;20172;-60
2021/05/26 17:58:04;;;;;;;0.57;0.22;;;13.20;99.90;;;;;;10070728;29;20112;-59
2021/05/26 18:03:08;;;;;;;3.58;0.35;;;13.10;99.90;;;;;;10070303;29;20496;-61
2021/05/26 18:08:10;;;;;;;0.50;0.30;;;12.60;99.90;;;;;;10070760;29;20060;-60
2021/05/26 18:13:13;;;;;;;1.75;0.50;;;12.20;99.90;;;;;;10070196;29;20060;-60
2021/05/26 18:18:15;;;;;;;2.55;0.73;;;11.80;99.90;;;;;;10069900;29;20116;-60
2021/05/26 18:23:21;;;;;;;1.85;0.50;;;11.60;99.90;;;;;;10073910;29;20563;-60
2021/05/26 18:28:23;;;;;;;3.70;0.80;;;11.30;99.90;;;;;;10071335;29;20068;-60
2021/05/26 18:33:27;;;;;;;1.55;0.70;;;11.20;99.90;;;;;;10067839;29;20117;-60
2021/05/26 18:38:29;;;;;;;0.70;0.50;;;11.10;99.90;;;;;;10070930;29;20060;-60
2021/05/26 18:43:30;;;;;;;2.10;0.52;;;11.10;99.90;;;;;;10067772;29;20056;-59
2021/05/26 18:48:32;;;;;;;2.00;0.70;;;11.00;99.90;;;;;;10070783;29;20068;-60
2021/05/26 18:53:35;;;;;;;1.05;0.50;;;10.90;99.90;;;;;;10070774;29;20045;-59
2021/05/26 18:58:37;;;;;;;4.35;0.80;;;10.80;99.90;;;;;;10068784;29;20541;-60
2021/05/26 19:03:38;;;;;;;1.13;0.55;;;10.80;99.90;;;;;;10067694;29;20485;-60
2021/05/26 19:08:40;;;;;;;1.48;0.60;;;10.70;99.90;;;;;;10069329;29;20415;-59
2021/05/26 19:13:42;;;;;;;1.63;0.70;;;10.70;99.90;;;;;;10069445;29;21590;-60
2021/05/26 19:18:44;;;;;;;1.90;0.80;;;10.60;99.90;;;;;;10066427;29;20057;-58
2021/05/26 19:23:45;;;;;;;3.47;0.88;;;10.70;99.90;;;;;;10072371;29;20045;-59
2021/05/26 19:28:48;;;;;;;1.80;0.90;;;10.60;99.90;;;;;;10070329;29;20072;-59
2021/05/26 19:33:50;;;;;;;2.08;0.90;;;10.40;99.90;;;;;;10070266;29;20057;-60
2021/05/26 19:38:53;;;;;;;3.72;1.45;;;10.30;99.90;;;;;;10036980;29;20661;-60
2021/05/26 19:43:54;;;;;;;5.93;1.77;;;10.20;99.90;;;;;;10070380;29;20050;-59
2021/05/26 19:48:56;;;;;;;5.70;1.98;;;10.10;99.90;;;;;;10070116;29;20141;-58
2021/05/26 19:54:04;;;;;;;4.68;1.85;;;10.00;99.90;;;;;;10071178;29;20101;-59
2021/05/26 19:59:06;;;;;;;2.42;1.70;;;9.90;99.90;;;;;;10078811;29;20057;-58
2021/05/26 20:04:08;;;;;;;4.60;1.00;;;9.80;99.90;;;;;;10076564;29;20057;-59
2021/05/26 20:09:10;;;;;;;5.95;1.67;;;9.70;99.90;;;;;;10075951;29;20053;-57
2021/05/26 20:14:11;;;;;;;4.03;1.20;;;9.70;99.90;;;;;;10076886;29;20049;-56
2021/05/26 20:19:13;;;;;;;1.45;1.17;;;9.60;99.90;;;;;;10075267;29;20105;-58
2021/05/26 20:24:15;;;;;;;1.85;0.50;;;9.80;99.90;;;;;;10074847;29;20108;-58
2021/05/26 20:29:17;;;;;;;0.85;0.65;;;9.90;99.90;;;;;;10073816;29;20088;-58
2021/05/26 20:34:19;;;;;;;3.00;0.70;;;9.80;99.90;;;;;;10074796;29;20547;-58
2021/05/26 20:39:21;;;;;;;3.72;1.02;;;9.80;99.90;;;;;;10073613;29;20466;-59
2021/05/26 20:44:22;;;;;;;2.50;0.80;;;9.70;99.90;;;;;;10074206;29;20056;-59
2021/05/26 20:49:25;;;;;;;2.28;0.90;;;9.60;99.90;;;;;;10074629;29;20129;-58
2021/05/26 20:54:27;;;;;;;5.05;0.60;;;9.60;99.90;;;;;;10072072;29;20056;-57
2021/05/26 20:59:28;;;;;;;1.40;0.50;;;9.50;99.90;;;;;;10072871;29;20049;-57
2021/05/26 21:04:30;;;;;;;1.90;0.60;;;9.50;99.90;;;;;;10070585;29;20113;-58
2021/05/26 21:09:32;;;;;;;0.90;0.60;;;9.40;99.90;;;;;;10071970;29;20103;-61
2021/05/26 21:14:35;;;;;;;2.08;0.60;;;9.30;99.90;;;;;;10071477;29;20049;-58
2021/05/26 21:19:37;;;;;;;1.13;0.50;;;9.20;99.90;;;;;;10071447;29;20057;-59
2021/05/26 21:24:39;;;;;;;5.28;0.90;;;9.10;99.90;;;;;;10070854;29;20470;-59
2021/05/26 21:29:41;;;;;;;1.65;0.70;;;9.10;99.90;;;;;;10068975;29;20081;-58
2021/05/26 21:34:43;;;;;;;2.80;0.63;;;9.00;99.90;;;;;;10072632;29;20049;-58
2021/05/26 21:39:45;;;;;;;2.03;0.75;;;8.90;99.90;;;;;;10070012;29;20132;-60
2021/05/26 21:44:46;;;;;;;3.35;1.13;;;8.90;99.90;;;;;;10070668;29;20077;-58
2021/05/26 21:49:48;;;;;;;2.05;0.60;;;8.80;99.90;;;;;;10072141;29;20077;-58
2021/05/26 21:54:50;;;;;;;1.20;0.60;;;8.80;99.90;;;;;;10076349;29;20049;-58
2021/05/26 21:59:54;;;;;;;2.40;0.63;;;8.80;99.90;;;;;;10069146;29;20053;-58
2021/05/26 22:04:55;;;;;;;4.55;0.90;;;8.70;99.90;;;;;;10072395;29;20061;-58
2021/05/26 22:09:57;;;;;;;1.23;0.82;;;8.70;99.90;;;;;;10074074;29;20053;-58
2021/05/26 22:14:59;;;;;;;1.15;0.70;;;8.60;99.90;;;;;;10071929;29;20587;-58
2021/05/26 22:20:02;;;;;;;3.25;0.82;;;8.60;99.90;;;;;;10055988;29;20053;-58
2021/05/26 22:25:08;;;;;;;1.45;0.80;;;8.60;99.90;;;;;;10068865;29;20108;-58
2021/05/26 22:30:13;;;;;;;3.85;1.10;;;8.50;99.90;;;;;;10069449;29;20089;-58
2021/05/26 22:35:15;;;;;;;3.03;1.08;;;8.50;99.90;;;;;;10071091;29;20053;-59
2021/05/26 22:40:24;;;;;;;5.18;1.40;;;8.40;99.90;;;;;;10069493;29;20052;-58
2021/05/26 22:45:48;;;;;;;4.18;1.13;;;8.30;99.90;;;;;;10070654;29;20132;-58
2021/05/26 22:50:50;;;;;;;2.17;0.77;;;8.20;99.90;;;;;;10024758;29;20064;-59
2021/05/26 22:55:52;;;;;;;2.90;1.00;;;8.20;99.90;;;;;;10068781;29;20124;-58
2021/05/26 23:00:54;;;;;;;3.60;0.90;;;8.10;99.90;;;;;;10069631;29;20556;-58
2021/05/26 23:06:02;;;;;;;2.70;1.05;;;8.10;99.90;;;;;;10067674;29;20085;-58
2021/05/26 23:11:05;;;;;;;2.55;0.93;;;8.00;99.90;;;;;;10071157;29;20057;-58
2021/05/26 23:16:07;;;;;;;1.85;1.02;;;8.00;99.90;;;;;;10070399;29;20145;-57
2021/05/26 23:21:09;;;;;;;1.63;1.10;;;8.00;99.90;;;;;;10069655;29;20060;-58
2021/05/26 23:26:11;;;;;;;2.38;0.88;;;8.00;99.90;;;;;;10068620;29;20053;-58
2021/05/26 23:31:13;;;;;;;2.15;1.00;;;8.00;99.90;;;;;;10078609;29;20469;-58
2021/05/26 23:36:14;;;;;;;2.72;1.33;;;8.00;99.90;;;;;;10077594;29;20049;-59
2021/05/26 23:41:16;;;;;;;1.55;1.27;;;7.90;99.90;;;;;;10076598;29;20061;-58
2021/05/26 23:46:18;;;;;;;4.60;1.45;;;7.90;99.90;;;;;;10076433;29;20488;-59
2021/05/26 23:51:20;;;;;;;3.67;1.20;;;7.90;99.90;;;;;;10075553;29;20084;-57
2021/05/26 23:56:21;;;;;;;1.50;1.20;;;8.00;99.90;;;;;;10076113;29;20049;-59
